createdAt,value
2023-04-22T00:01:21.320Z,63.36
2023-04-22T00:03:51.998Z,63.34
2023-04-22T00:06:27.798Z,63.47
2023-04-22T00:08:56.220Z,63.35
2023-04-22T00:11:24.733Z,63.62
2023-04-22T00:13:54.622Z,63.57
2023-04-22T00:16:23.102Z,63.47
2023-04-22T00:18:51.498Z,63.62
2023-04-22T00:21:19.866Z,63.77
2023-04-22T00:23:49.982Z,63.70
2023-04-22T00:26:18.355Z,63.59
2023-04-22T00:28:46.794Z,63.53
2023-04-22T00:31:16.726Z,63.28
2023-04-22T00:33:45.097Z,63.25
2023-04-22T00:36:13.536Z,63.31
2023-04-22T00:38:43.343Z,63.56
2023-04-22T00:41:12.470Z,63.28
2023-04-22T00:43:41.081Z,63.36
2023-04-22T00:46:10.260Z,62.84
2023-04-22T00:48:40.199Z,62.88
2023-04-22T00:51:09.057Z,62.72
2023-04-22T00:53:37.418Z,63.06
2023-04-22T00:56:06.172Z,62.54
2023-04-22T00:58:34.657Z,62.87
2023-04-22T01:01:03.908Z,62.90
2023-04-22T01:03:33.833Z,62.88
2023-04-22T01:06:03.848Z,62.58
2023-04-22T01:08:32.218Z,62.72
2023-04-22T01:11:01.253Z,63.24
2023-04-22T01:13:30.607Z,63.12
2023-04-22T01:15:59.824Z,63.22
2023-04-22T01:18:28.241Z,63.43
2023-04-22T01:20:57.668Z,63.60
2023-04-22T01:23:27.703Z,62.89
2023-04-22T01:25:56.599Z,62.89
2023-04-22T01:28:25.849Z,62.81
2023-04-22T01:30:54.588Z,62.97
2023-04-22T01:33:23.216Z,62.98
2023-04-22T01:35:51.775Z,63.22
2023-04-22T01:38:20.132Z,63.85
2023-04-22T01:40:50.186Z,63.84
2023-04-22T01:43:26.705Z,63.73
2023-04-22T01:45:55.291Z,64.19
2023-04-22T01:48:23.905Z,63.67
2023-04-22T01:50:52.657Z,63.75
2023-04-22T01:53:20.941Z,63.69
2023-04-22T01:55:51.734Z,63.91
2023-04-22T01:58:20.180Z,64.60
2023-04-22T02:00:48.713Z,64.04
2023-04-22T02:03:17.283Z,64.16
2023-04-22T02:05:45.783Z,64.86
2023-04-22T02:08:14.145Z,64.70
2023-04-22T02:10:53.799Z,64.46
2023-04-22T02:13:22.115Z,64.76
2023-04-22T02:15:50.953Z,65.33
2023-04-22T02:18:20.423Z,65.37
2023-04-22T02:20:48.903Z,65.64
2023-04-22T02:23:17.610Z,65.34
2023-04-22T02:25:50.791Z,65.37
2023-04-22T02:28:20.584Z,65.75
2023-04-22T02:30:49.003Z,65.20
2023-04-22T02:33:17.349Z,65.40
2023-04-22T02:35:45.767Z,65.65
2023-04-22T02:38:14.066Z,65.57
2023-04-22T02:40:42.468Z,65.21
2023-04-22T02:43:10.811Z,65.93
2023-04-22T02:45:40.939Z,65.26
2023-04-22T02:48:14.622Z,65.74
2023-04-22T02:50:42.988Z,65.67
2023-04-22T02:53:11.382Z,65.75
2023-04-22T02:55:41.907Z,65.52
2023-04-22T02:58:10.554Z,65.44
2023-04-22T03:00:40.334Z,65.29
2023-04-22T03:03:08.964Z,65.89
2023-04-22T03:05:37.419Z,65.61
2023-04-22T03:08:05.785Z,66.28
2023-04-22T03:10:34.231Z,66.63
2023-04-22T03:13:02.571Z,66.81
2023-04-22T03:15:30.948Z,67.15
2023-04-22T03:18:00.792Z,67.26
2023-04-22T03:20:34.868Z,67.11
2023-04-22T03:23:03.415Z,67.08
2023-04-22T03:25:31.768Z,66.86
2023-04-22T03:28:00.244Z,66.84
2023-04-22T03:30:28.603Z,66.64
2023-04-22T03:33:06.529Z,66.16
2023-04-22T03:35:34.898Z,65.28
2023-04-22T03:38:03.263Z,65.48
2023-04-22T03:40:31.605Z,64.83
2023-04-22T03:42:59.976Z,64.71
2023-04-22T03:45:28.445Z,64.88
2023-04-22T03:47:56.856Z,65.07
2023-04-22T03:50:26.750Z,64.85
2023-04-22T03:52:55.317Z,65.00
2023-04-22T03:55:23.664Z,65.20
2023-04-22T03:57:52.682Z,64.90
2023-04-22T04:00:21.428Z,65.30
2023-04-22T04:02:49.965Z,65.13
2023-04-22T04:05:18.830Z,65.48
2023-04-22T04:07:48.954Z,66.06
2023-04-22T04:10:17.415Z,66.63
2023-04-22T04:12:45.962Z,66.42
2023-04-22T04:15:14.408Z,66.22
2023-04-22T04:17:42.863Z,65.91
2023-04-22T04:20:11.951Z,65.82
2023-04-22T04:22:40.512Z,65.86
2023-04-22T04:25:18.308Z,65.71
2023-04-22T04:27:46.675Z,66.01
2023-04-22T04:30:16.399Z,65.34
2023-04-22T04:32:45.597Z,66.15
2023-04-22T04:35:14.392Z,66.07
2023-04-22T04:37:44.162Z,65.70
2023-04-22T04:40:13.636Z,66.09
2023-04-22T04:42:43.485Z,66.13
2023-04-22T04:45:12.535Z,66.11
2023-04-22T04:47:52.729Z,66.22
2023-04-22T04:50:21.770Z,66.51
2023-04-22T04:52:50.254Z,66.61
2023-04-22T04:55:18.857Z,66.44
2023-04-22T04:57:48.666Z,66.21
2023-04-22T05:00:17.332Z,66.32
2023-04-22T05:02:45.802Z,66.45
2023-04-22T05:05:14.186Z,66.40
2023-04-22T05:07:42.535Z,66.23
2023-04-22T05:10:11.923Z,66.32
2023-04-22T05:12:46.377Z,66.28
2023-04-22T05:15:16.190Z,66.63
2023-04-22T05:17:44.870Z,66.26
2023-04-22T05:20:15.346Z,66.02
2023-04-22T05:22:47.000Z,66.04
2023-04-22T05:25:16.039Z,66.14
2023-04-22T05:27:44.536Z,65.94
2023-04-22T05:30:13.323Z,66.27
2023-04-22T05:32:43.401Z,66.27
2023-04-22T05:35:12.103Z,66.70
2023-04-22T05:37:40.625Z,66.91
2023-04-22T05:40:10.234Z,66.97
2023-04-22T05:42:38.676Z,67.02
2023-04-22T05:45:08.316Z,66.87
2023-04-22T05:47:37.161Z,66.59
2023-04-22T05:50:08.441Z,66.79
2023-04-22T05:52:36.871Z,66.79
2023-04-22T05:55:06.058Z,66.36
2023-04-22T05:57:34.474Z,66.47
2023-04-22T06:00:04.543Z,67.35
2023-04-22T06:02:33.130Z,67.15
2023-04-22T06:05:01.917Z,66.67
2023-04-22T06:07:32.693Z,66.81
2023-04-22T06:10:05.207Z,66.99
2023-04-22T06:12:34.670Z,66.75
2023-04-22T06:15:03.180Z,66.63
2023-04-22T06:17:35.807Z,66.39
2023-04-22T06:20:04.484Z,66.27
2023-04-22T06:22:34.212Z,66.08
2023-04-22T06:25:02.554Z,66.05
2023-04-22T06:27:40.884Z,65.96
2023-04-22T06:30:12.039Z,66.08
2023-04-22T06:32:40.512Z,65.82
2023-04-22T06:35:09.911Z,65.88
2023-04-22T06:37:39.948Z,65.66
2023-04-22T06:40:09.622Z,65.39
2023-04-22T06:42:38.024Z,64.98
2023-04-22T06:45:08.430Z,64.69
2023-04-22T06:47:37.072Z,64.27
2023-04-22T06:50:06.316Z,63.89
2023-04-22T06:52:34.726Z,63.64
2023-04-22T06:55:05.086Z,63.07
2023-04-22T06:57:33.469Z,62.91
2023-04-22T07:00:01.884Z,62.86
2023-04-22T07:02:30.444Z,62.59
2023-04-22T07:04:59.092Z,62.20
2023-04-22T07:07:27.561Z,62.13
2023-04-22T07:09:56.107Z,62.04
2023-04-22T07:12:26.441Z,61.59
2023-04-22T07:14:54.849Z,61.29
2023-04-22T07:17:23.335Z,61.29
2023-04-22T07:19:51.743Z,61.09
2023-04-22T07:22:20.164Z,60.93
2023-04-22T07:24:48.546Z,60.64
2023-04-22T07:27:17.276Z,60.72
2023-04-22T07:29:47.023Z,60.25
2023-04-22T07:32:15.465Z,60.07
2023-04-22T07:34:43.851Z,59.89
2023-04-22T07:37:12.214Z,59.80
2023-04-22T07:39:41.862Z,59.59
2023-04-22T07:42:10.615Z,59.72
2023-04-22T07:44:39.641Z,59.45
2023-04-22T07:47:09.598Z,59.28
2023-04-22T07:49:38.346Z,59.30
2023-04-22T07:52:07.027Z,59.15
2023-04-22T07:54:35.407Z,58.86
2023-04-22T07:57:04.827Z,59.06
2023-04-22T07:59:33.210Z,58.84
2023-04-22T08:02:01.894Z,58.76
2023-04-22T08:04:31.977Z,58.45
2023-04-22T08:07:09.246Z,58.58
2023-04-22T08:09:45.885Z,58.20
2023-04-22T08:12:14.445Z,58.11
2023-04-22T08:14:42.863Z,57.95
2023-04-22T08:17:11.332Z,58.05
2023-04-22T08:19:41.374Z,57.86
2023-04-22T08:22:09.924Z,57.75
2023-04-22T08:24:38.299Z,57.29
2023-04-22T08:27:06.682Z,57.09
2023-04-22T08:29:35.146Z,56.79
2023-04-22T08:32:04.166Z,56.73
2023-04-22T08:34:32.570Z,56.31
2023-04-22T08:37:02.318Z,56.17
2023-04-22T08:39:30.768Z,55.77
2023-04-22T08:41:59.305Z,55.72
2023-04-22T08:44:28.120Z,55.23
2023-04-22T08:46:59.523Z,54.65
2023-04-22T08:49:31.109Z,54.59
2023-04-22T08:51:59.804Z,54.35
2023-04-22T08:54:29.540Z,53.86
2023-04-22T08:56:58.379Z,53.91
2023-04-22T08:59:27.312Z,53.83
2023-04-22T09:01:59.769Z,53.41
2023-04-22T09:04:28.382Z,53.24
2023-04-22T09:06:57.999Z,53.15
2023-04-22T09:09:26.580Z,53.17
2023-04-22T09:11:59.048Z,52.84
2023-04-22T09:14:27.822Z,52.85
2023-04-22T09:16:59.413Z,52.58
2023-04-22T09:19:27.799Z,52.37
2023-04-22T09:21:58.948Z,51.95
2023-04-22T09:24:27.393Z,51.76
2023-04-22T09:26:58.457Z,51.49
2023-04-22T09:29:31.247Z,50.96
2023-04-22T09:31:59.668Z,50.90
2023-04-22T09:34:28.831Z,50.54
2023-04-22T09:36:57.372Z,50.24
2023-04-22T09:39:25.848Z,50.03
2023-04-22T09:42:00.412Z,49.60
2023-04-22T09:44:40.283Z,49.37
2023-04-22T09:47:11.993Z,49.84
2023-04-22T09:49:40.837Z,49.72
2023-04-22T09:52:10.084Z,49.65
2023-04-22T09:54:39.950Z,49.28
2023-04-22T09:57:15.242Z,48.34
2023-04-22T09:59:43.793Z,48.01
2023-04-22T10:02:12.186Z,47.46
2023-04-22T10:04:40.626Z,47.12
2023-04-22T10:07:09.125Z,47.36
2023-04-22T10:09:38.056Z,47.18
2023-04-22T10:12:06.813Z,47.25
2023-04-22T10:14:36.616Z,47.36
2023-04-22T10:17:06.152Z,47.50
2023-04-22T10:19:35.683Z,47.97
2023-04-22T10:22:05.095Z,47.99
2023-04-22T10:24:37.075Z,47.87
2023-04-22T10:27:08.355Z,47.60
2023-04-22T10:29:40.161Z,46.92
2023-04-22T10:32:27.807Z,46.44
2023-04-22T10:35:10.549Z,46.25
2023-04-22T10:37:42.751Z,46.50
2023-04-22T10:40:15.889Z,46.58
2023-04-22T10:42:48.462Z,46.33
2023-04-22T10:45:20.828Z,46.00
2023-04-22T10:48:04.394Z,45.70
2023-04-22T10:50:33.634Z,45.46
2023-04-22T10:53:22.761Z,45.39
2023-04-22T10:55:53.108Z,45.30
2023-04-22T10:58:22.594Z,44.90
2023-04-22T11:01:00.282Z,44.98
2023-04-22T11:03:30.678Z,44.95
2023-04-22T11:06:15.768Z,44.55
2023-04-22T11:08:46.929Z,44.79
2023-04-22T11:11:17.655Z,44.65
2023-04-22T11:13:47.547Z,44.21
2023-04-22T11:16:18.868Z,44.36
2023-04-22T11:18:49.453Z,44.23
2023-04-22T11:21:18.150Z,43.90
2023-04-22T11:23:51.749Z,43.82
2023-04-22T11:26:20.376Z,43.67
2023-04-22T11:28:49.043Z,42.73
2023-04-22T11:31:18.850Z,42.10
2023-04-22T11:33:50.185Z,41.96
2023-04-22T11:36:19.479Z,41.99
2023-04-22T11:38:56.024Z,41.78
2023-04-22T11:41:24.788Z,41.72
2023-04-22T11:43:54.798Z,41.10
2023-04-22T11:46:31.885Z,40.22
2023-04-22T11:49:13.786Z,39.88
2023-04-22T11:51:54.067Z,39.62
2023-04-22T11:54:32.225Z,39.82
2023-04-22T11:57:03.338Z,40.01
2023-04-22T11:59:31.673Z,39.60
2023-04-22T12:02:06.279Z,39.59
2023-04-22T12:04:37.585Z,39.50
2023-04-22T12:07:06.030Z,39.28
2023-04-22T12:09:34.746Z,38.83
2023-04-22T12:12:04.830Z,38.62
2023-04-22T12:14:34.554Z,38.49
2023-04-22T12:17:06.398Z,37.89
2023-04-22T12:19:34.832Z,38.07
2023-04-22T12:22:03.199Z,37.48
2023-04-22T12:24:32.048Z,37.15
2023-04-22T12:27:01.315Z,36.79
2023-04-22T12:29:32.952Z,37.00
2023-04-22T12:32:01.913Z,36.94
2023-04-22T12:34:31.705Z,35.96
2023-04-22T12:37:01.359Z,35.47
2023-04-22T12:39:29.979Z,35.74
2023-04-22T12:42:01.650Z,35.12
2023-04-22T12:44:30.418Z,34.98
2023-04-22T12:47:01.333Z,34.85
2023-04-22T12:49:31.044Z,35.11
2023-04-22T12:52:01.824Z,35.01
2023-04-22T12:54:30.387Z,35.09
2023-04-22T12:57:02.824Z,34.46
2023-04-22T12:59:31.170Z,34.65
2023-04-22T13:02:02.351Z,34.68
2023-04-22T13:04:32.133Z,34.58
2023-04-22T13:07:01.028Z,34.51
2023-04-22T13:09:29.474Z,34.33
2023-04-22T13:11:58.605Z,33.83
2023-04-22T13:14:27.056Z,33.92
2023-04-22T13:16:55.434Z,33.94
2023-04-22T13:19:25.828Z,33.80
2023-04-22T13:21:55.715Z,34.07
2023-04-22T13:24:24.131Z,33.31
2023-04-22T13:26:52.831Z,33.30
2023-04-22T13:29:21.216Z,33.11
2023-04-22T13:31:49.675Z,33.21
2023-04-22T13:34:18.186Z,33.20
2023-04-22T13:36:47.181Z,32.82
2023-04-22T13:39:17.803Z,32.44
2023-04-22T13:41:46.219Z,32.77
2023-04-22T13:44:15.632Z,32.56
2023-04-22T13:46:44.622Z,32.25
2023-04-22T13:49:13.052Z,32.27
2023-04-22T13:51:41.508Z,32.11
2023-04-22T13:54:10.082Z,31.90
2023-04-22T13:56:39.998Z,31.81
2023-04-22T13:59:08.385Z,31.74
2023-04-22T14:01:37.977Z,31.81
2023-04-22T14:04:06.495Z,31.89
2023-04-22T14:06:34.889Z,31.92
2023-04-22T14:09:04.463Z,31.55
2023-04-22T14:11:33.724Z,31.02
2023-04-22T14:14:03.473Z,31.21
2023-04-22T14:16:33.130Z,30.61
2023-04-22T14:19:02.679Z,30.60
2023-04-22T14:21:31.317Z,30.78
2023-04-22T14:24:01.398Z,30.65
2023-04-22T14:26:32.430Z,30.49
2023-04-22T14:29:03.887Z,30.76
2023-04-22T14:31:32.285Z,30.65
2023-04-22T14:34:03.100Z,30.64
2023-04-22T14:36:32.069Z,30.66
2023-04-22T14:39:03.303Z,30.38
2023-04-22T14:41:32.280Z,30.29
2023-04-22T14:44:00.680Z,30.29
2023-04-22T14:46:30.919Z,30.54
2023-04-22T14:48:59.964Z,30.71
2023-04-22T14:51:29.052Z,30.52
2023-04-22T14:53:57.992Z,30.17
2023-04-22T14:56:26.766Z,30.43
2023-04-22T14:58:55.160Z,30.14
2023-04-22T15:01:23.682Z,29.96
2023-04-22T15:03:53.779Z,29.77
2023-04-22T15:06:23.755Z,29.70
2023-04-22T15:08:52.421Z,29.45
2023-04-22T15:11:21.077Z,29.31
2023-04-22T15:13:49.680Z,29.43
2023-04-22T15:16:18.785Z,29.53
2023-04-22T15:18:47.254Z,29.16
2023-04-22T15:21:17.227Z,28.96
2023-04-22T15:23:45.735Z,28.78
2023-04-22T15:26:15.192Z,28.87
2023-04-22T15:28:43.563Z,28.77
2023-04-22T15:31:11.894Z,28.66
2023-04-22T15:33:40.531Z,28.71
2023-04-22T15:36:09.701Z,28.39
2023-04-22T15:38:40.053Z,28.31
2023-04-22T15:41:08.546Z,28.44
2023-04-22T15:43:39.588Z,28.59
2023-04-22T15:46:08.505Z,28.41
2023-04-22T15:48:37.017Z,28.44
2023-04-22T15:51:05.394Z,28.17
2023-04-22T15:53:33.757Z,28.17
2023-04-22T15:56:06.787Z,28.53
2023-04-22T15:58:35.168Z,28.28
2023-04-22T16:01:11.789Z,28.37
2023-04-22T16:03:47.475Z,28.47
2023-04-22T16:06:16.521Z,28.10
2023-04-22T16:08:45.425Z,28.17
2023-04-22T16:11:16.417Z,27.95
2023-04-22T16:13:44.924Z,28.13
2023-04-22T16:16:13.372Z,28.08
2023-04-22T16:18:44.241Z,27.89
2023-04-22T16:21:13.073Z,28.40
2023-04-22T16:23:41.506Z,28.09
2023-04-22T16:26:10.521Z,28.36
2023-04-22T16:28:40.238Z,28.45
2023-04-22T16:31:11.385Z,28.37
2023-04-22T16:33:39.770Z,28.85
2023-04-22T16:36:10.259Z,28.76
2023-04-22T16:38:38.775Z,28.58
2023-04-22T16:41:07.339Z,28.63
2023-04-22T16:43:35.790Z,28.97
2023-04-22T16:46:05.733Z,29.14
2023-04-22T16:48:34.168Z,29.00
2023-04-22T16:51:04.212Z,28.99
2023-04-22T16:53:32.824Z,28.99
2023-04-22T16:56:01.231Z,29.16
2023-04-22T16:58:29.681Z,29.15
2023-04-22T17:00:58.120Z,29.40
2023-04-22T17:03:28.376Z,29.30
2023-04-22T17:05:56.990Z,29.26
2023-04-22T17:08:25.413Z,29.11
2023-04-22T17:10:54.126Z,29.25
2023-04-22T17:13:22.527Z,29.45
2023-04-22T17:15:50.921Z,29.49
2023-04-22T17:18:19.322Z,29.70
2023-04-22T17:20:49.478Z,29.55
2023-04-22T17:23:18.624Z,29.57
2023-04-22T17:25:47.909Z,29.72
2023-04-22T17:28:16.710Z,29.97
2023-04-22T17:30:45.108Z,29.99
2023-04-22T17:33:15.328Z,30.08
2023-04-22T17:35:43.801Z,30.22
2023-04-22T17:38:14.145Z,30.29
2023-04-22T17:40:43.665Z,30.45
2023-04-22T17:43:12.277Z,30.75
2023-04-22T17:45:40.814Z,31.01
2023-04-22T17:48:09.175Z,31.33
2023-04-22T17:50:37.656Z,31.75
2023-04-22T17:53:06.505Z,31.78
2023-04-22T17:55:36.244Z,31.71
2023-04-22T17:58:05.712Z,31.88
2023-04-22T18:00:34.885Z,31.90
2023-04-22T18:03:05.727Z,31.95
2023-04-22T18:05:34.357Z,32.10
2023-04-22T18:08:04.938Z,32.13
2023-04-22T18:10:33.392Z,32.33
2023-04-22T18:13:05.566Z,32.35
2023-04-22T18:15:33.914Z,32.64
2023-04-22T18:18:03.869Z,32.79
2023-04-22T18:20:32.394Z,33.00
2023-04-22T18:23:01.103Z,33.37
2023-04-22T18:25:29.776Z,33.63
2023-04-22T18:27:58.334Z,34.19
2023-04-22T18:30:28.967Z,34.72
2023-04-22T18:32:59.309Z,34.93
2023-04-22T18:35:28.062Z,35.17
2023-04-22T18:37:56.445Z,35.53
2023-04-22T18:40:24.939Z,35.71
2023-04-22T18:42:53.328Z,36.09
2023-04-22T18:45:22.978Z,36.44
2023-04-22T18:47:53.170Z,37.04
2023-04-22T18:50:22.360Z,37.01
2023-04-22T18:52:51.123Z,37.33
2023-04-22T18:55:19.551Z,37.52
2023-04-22T18:57:47.886Z,37.76
2023-04-22T19:00:16.998Z,37.97
2023-04-22T19:02:46.054Z,38.24
2023-04-22T19:05:18.014Z,38.55
2023-04-22T19:07:46.722Z,38.69
2023-04-22T19:10:15.334Z,38.96
2023-04-22T19:12:43.738Z,38.80
2023-04-22T19:15:12.931Z,39.20
2023-04-22T19:17:42.635Z,39.44
2023-04-22T19:20:11.992Z,39.65
2023-04-22T19:22:42.243Z,39.75
2023-04-22T19:25:10.965Z,40.30
2023-04-22T19:27:40.168Z,40.43
2023-04-22T19:30:09.788Z,40.72
2023-04-22T19:32:38.324Z,40.65
2023-04-22T19:35:08.888Z,40.74
2023-04-22T19:37:37.437Z,40.86
2023-04-22T19:40:18.697Z,41.13
2023-04-22T19:42:47.270Z,41.19
2023-04-22T19:45:15.723Z,41.38
2023-04-22T19:47:45.246Z,41.53
2023-04-22T19:50:14.916Z,41.60
2023-04-22T19:52:46.452Z,41.63
2023-04-22T19:55:15.250Z,41.93
2023-04-22T19:57:45.455Z,42.18
2023-04-22T20:00:14.788Z,42.54
2023-04-22T20:02:43.811Z,42.63
2023-04-22T20:05:13.278Z,42.85
2023-04-22T20:07:44.796Z,42.96
2023-04-22T20:10:14.823Z,43.00
2023-04-22T20:12:44.959Z,43.12
2023-04-22T20:15:14.023Z,42.87
2023-04-22T20:17:42.853Z,42.99
2023-04-22T20:20:15.196Z,43.34
2023-04-22T20:22:46.990Z,43.31
2023-04-22T20:25:17.156Z,43.70
2023-04-22T20:27:47.149Z,43.95
2023-04-22T20:30:15.991Z,44.02
2023-04-22T20:32:44.996Z,44.02
2023-04-22T20:35:15.170Z,44.04
2023-04-22T20:37:44.169Z,44.08
2023-04-22T20:40:19.024Z,44.34
2023-04-22T20:42:48.825Z,44.25
2023-04-22T20:45:17.903Z,44.97
2023-04-22T20:47:46.533Z,45.55
2023-04-22T20:50:15.974Z,45.92
2023-04-22T20:52:45.956Z,46.28
2023-04-22T20:55:15.038Z,46.81
2023-04-22T21:00:30.805Z,46.57
2023-04-22T21:03:00.791Z,46.47
2023-04-22T21:05:29.745Z,46.45
2023-04-22T21:08:01.359Z,46.65
2023-04-22T21:10:30.786Z,46.29
2023-04-22T21:12:59.425Z,46.68
2023-04-22T21:15:28.365Z,46.68
2023-04-22T21:17:59.785Z,46.96
2023-04-22T21:20:32.283Z,46.94
2023-04-22T21:23:04.634Z,46.78
2023-04-22T21:25:34.171Z,46.71
2023-04-22T21:28:03.126Z,46.72
2023-04-22T21:30:32.320Z,46.67
2023-04-22T21:33:02.063Z,47.09
2023-04-22T21:35:31.231Z,46.72
2023-04-22T21:38:01.162Z,46.87
2023-04-22T21:40:29.869Z,47.06
2023-04-22T21:43:00.073Z,47.13
2023-04-22T21:45:28.725Z,47.01
2023-04-22T21:47:59.154Z,46.92
2023-04-22T21:50:30.212Z,47.27
2023-04-22T21:53:00.651Z,47.29
2023-04-22T21:55:29.212Z,47.32
2023-04-22T21:58:03.238Z,47.47
2023-04-22T22:00:31.743Z,47.34
2023-04-22T22:03:00.359Z,47.72
2023-04-22T22:05:30.374Z,47.82
2023-04-22T22:08:00.630Z,47.84
2023-04-22T22:10:29.260Z,47.91
2023-04-22T22:12:57.621Z,47.84
2023-04-22T22:15:25.962Z,48.25
2023-04-22T22:17:54.421Z,48.17
2023-04-22T22:20:23.918Z,48.03
2023-04-22T22:22:53.790Z,48.41
2023-04-22T22:25:22.181Z,48.67
2023-04-22T22:27:50.731Z,48.71
2023-04-22T22:30:21.698Z,48.82
2023-04-22T22:32:50.539Z,48.95
2023-04-22T22:35:19.184Z,49.16
2023-04-22T22:37:47.550Z,49.27
2023-04-22T22:40:17.524Z,49.21
2023-04-22T22:42:46.179Z,49.50
2023-04-22T22:45:14.613Z,49.22
2023-04-22T22:47:43.806Z,49.05
2023-04-22T22:50:12.565Z,49.44
2023-04-22T22:52:41.349Z,49.43
2023-04-22T22:55:10.206Z,49.59
2023-04-22T22:57:50.006Z,49.61
2023-04-22T23:00:18.579Z,49.36
2023-04-22T23:02:47.219Z,49.45
2023-04-22T23:05:15.763Z,49.36
2023-04-22T23:07:54.173Z,49.56
2023-04-22T23:10:22.729Z,49.80
2023-04-22T23:12:56.426Z,49.72
2023-04-22T23:15:24.818Z,49.80
2023-04-22T23:17:53.277Z,49.63
2023-04-22T23:20:23.010Z,49.58
2023-04-22T23:22:58.616Z,49.62
2023-04-22T23:25:27.626Z,49.46
2023-04-22T23:27:57.806Z,49.44
2023-04-22T23:30:26.598Z,49.44
2023-04-22T23:32:58.516Z,49.71
2023-04-22T23:35:28.203Z,49.68
2023-04-22T23:37:58.745Z,49.78
2023-04-22T23:40:27.360Z,49.87
2023-04-22T23:42:57.996Z,49.88
2023-04-22T23:45:26.591Z,49.54
2023-04-22T23:47:55.099Z,49.84
2023-04-22T23:50:23.597Z,49.78
2023-04-22T23:52:51.940Z,49.82
2023-04-22T23:55:20.890Z,50.10
2023-04-22T23:57:50.757Z,50.24
